KZ-0038 weather

Kegan Airport
Kegen, Almaty Region, Kazakhstan

Public forecast

Using degrees Celsius for public forecast. Weather courtesy of forecast.io.

METAR (pilot weather report)

Closest report is Almaty Airport, 97.8 nm (181.0 km) WNW. Retrieved 2019/03/26 18:30 UTC (2 hours ago):

UAAA 261830Z 14002MPS 2800 FU SCT200 08/00 Q1015 R88/65D NOSIG

TAF (pilot weather forecast)

Closest forecast is Almaty Airport, 97.8 nm (181.0 km) WNW. Retrieved 2019/03/26 18:18 UTC (2 hours ago):

TAF TAF UAAA 261700Z 2618/2718 18004MPS 3100 BR FU SCT050 SCT100 TX20/2708Z TN05/2701Z TEMPO 2618/2622 1500 FM270400 04004MPS 9999 SCT050CB BKN100 BECMG 2712/2713 16004MPS 3100 BR FU TEMPO 2713/2718 1500